Terminal Aerodrome Forecast
Issued by NWS

Home | Current Version | Previous Version | Text Only | Print | Product List | Glossary On
Versions: 1 2 3 4 5 6 7 8 9 10 11 12 13 14 15 16 17
000
FTUS43 KLSX 012300
TAFSUS
TAF
KSUS 012320Z 0200/0224 VRB03KT P6SM VCSH OVC080
     FM020100 VRB03KT P6SM SCT080 BKN250
     FM020900 00000KT 3SM BR SKC
     FM021300 VRB03KT P6SM SKC
     FM021700 05006KT P6SM SCT050=

USA.gov is the U.S. government's official web portal to all federal, state and local government web resources and services.